Terminal Aerodrome Forecast
Issued by NWS

Current Version | Previous Version | Text Only | Print | Product List | Glossary Off
Versions: 1 2 3 4 5 6 7 8 9 10 11 12 13 14 15 16 17 18

000
FTUS41 KRNK 222338
TAFLWB
TAF
KLWB 222338Z 2300/2324 34007KT P6SM OVC025
     FM230600 33006KT P6SM OVC020
     FM231500 32007KT P6SM OVC027
     FM232100 31005KT P6SM BKN030=

USA.gov is the U.S. government's official web portal to all federal, state and local government web resources and services.